Terminal Aerodrome Forecast
Issued by NWS

Home | Current Version | Previous Version | Text Only | Print | Product List | Glossary On
Versions: 1 2 3 4 5 6 7 8 9 10 11 12 13 14
000
FTAK31 PANC 302331
TAFATK
TAF
PATK 302331Z 0100/0124 04011G18KT P6SM SCT050 BKN080
     FM010300 01007KT P6SM SCT050 BKN100
     FM011800 01005KT P6SM VCSH SCT040 BKN070=

USA.gov is the U.S. government's official web portal to all federal, state and local government web resources and services.